Time;durP1;ratioP1;P1;durP2;ratioP2;P2;SDS_P1;SDS_P2;PMS_P1;PMS_P2;Temp;Humidity;BMP_temperature;BMP_pressure;BME280_temperature;BME280_humidity;BME280_pressure;Samples;Min_cycle;Max_cycle;Signal;HPM_P1;HPM_P2
2023/09/15 00:00:40;;;;;;;0.20;0.20;;;18.70;99.90;;;;;;7385062;19;20231;-72
2023/09/15 00:03:06;;;;;;;0.10;0.10;;;18.60;99.90;;;;;;7384915;19;20134;-73
2023/09/15 00:05:33;;;;;;;0.25;0.25;;;18.50;99.90;;;;;;7384119;19;20147;-71
2023/09/15 00:08:03;;;;;;;0.13;0.13;;;18.30;99.90;;;;;;7382400;19;20131;-74
2023/09/15 00:10:29;;;;;;;0.15;0.15;;;18.40;99.90;;;;;;7386168;19;20146;-74
2023/09/15 00:12:55;;;;;;;0.20;0.20;;;18.60;99.90;;;;;;7388775;19;20994;-73
2023/09/15 00:15:21;;;;;;;0.50;0.40;;;18.60;99.90;;;;;;7393036;19;20154;-73
2023/09/15 00:17:47;;;;;;;0.17;0.17;;;18.50;99.90;;;;;;7390363;19;20194;-74
2023/09/15 00:20:13;;;;;;;0.10;0.10;;;18.40;99.90;;;;;;7390708;19;20457;-73
2023/09/15 00:22:49;;;;;;;0.20;0.20;;;18.40;99.90;;;;;;7393632;19;20137;-73
2023/09/15 00:25:19;;;;;;;0.13;0.13;;;18.40;99.90;;;;;;7392505;19;20138;-73
2023/09/15 00:27:47;;;;;;;0.32;0.32;;;18.30;99.90;;;;;;7391980;19;20132;-73
2023/09/15 00:30:15;;;;;;;0.22;0.22;;;18.40;99.90;;;;;;7391037;19;20131;-73
2023/09/15 00:32:41;;;;;;;0.15;0.15;;;18.20;99.90;;;;;;7391112;19;20147;-73
2023/09/15 00:35:06;;;;;;;0.13;0.13;;;17.80;99.90;;;;;;7390619;19;20222;-73
2023/09/15 00:37:32;;;;;;;0.25;0.25;;;17.80;99.90;;;;;;7390134;19;20243;-72
2023/09/15 00:39:58;;;;;;;0.30;0.30;;;17.80;99.90;;;;;;7389547;19;20143;-75
2023/09/15 00:42:25;;;;;;;0.73;0.73;;;17.60;99.90;;;;;;7389799;19;20134;-72
2023/09/15 00:44:51;;;;;;;0.32;0.32;;;17.50;99.90;;;;;;7391208;19;20138;-73
2023/09/15 00:47:17;;;;;;;0.10;0.10;;;17.40;99.90;;;;;;7391572;19;20178;-73
2023/09/15 00:49:46;;;;;;;0.20;0.20;;;17.60;99.90;;;;;;7392040;19;20143;-73
2023/09/15 00:52:15;;;;;;;0.20;0.20;;;17.90;99.90;;;;;;7391041;19;20153;-73
2023/09/15 00:54:41;;;;;;;0.40;0.40;;;17.70;99.90;;;;;;7392810;19;20131;-73
2023/09/15 00:57:07;;;;;;;0.32;0.20;;;17.80;99.90;;;;;;7391654;19;20146;-72
2023/09/15 00:59:33;;;;;;;0.20;0.20;;;17.80;99.90;;;;;;7393449;19;20158;-73
2023/09/15 01:02:00;;;;;;;0.20;0.20;;;17.70;99.90;;;;;;7384932;19;20134;-74
2023/09/15 01:04:29;;;;;;;0.32;0.13;;;17.70;99.90;;;;;;7388929;19;20178;-74
2023/09/15 01:06:57;;;;;;;0.30;0.30;;;17.80;99.90;;;;;;7390488;19;20607;-72
2023/09/15 01:09:23;;;;;;;0.32;0.22;;;18.10;99.90;;;;;;7393027;19;20165;-72
2023/09/15 01:11:51;;;;;;;0.20;0.20;;;18.00;99.90;;;;;;7390350;19;20135;-73
2023/09/15 01:14:17;;;;;;;0.30;0.30;;;17.80;99.90;;;;;;7388214;19;20142;-72
2023/09/15 01:16:52;;;;;;;0.30;0.30;;;17.90;99.90;;;;;;7390740;19;20146;-74
2023/09/15 01:19:56;;;;;;;0.20;0.20;;;18.10;99.90;;;;;;7391557;19;20138;-73
2023/09/15 01:22:33;;;;;;;0.30;0.30;;;18.10;99.90;;;;;;7388281;19;20139;-72
2023/09/15 01:25:21;;;;;;;0.20;0.20;;;18.10;99.90;;;;;;7389596;19;20158;-73
2023/09/15 01:28:00;;;;;;;0.20;0.20;;;18.10;99.90;;;;;;7389674;19;20272;-72
2023/09/15 01:30:28;;;;;;;0.22;0.22;;;18.10;99.90;;;;;;7391429;19;20469;-74
2023/09/15 01:32:57;;;;;;;0.20;0.20;;;18.10;99.90;;;;;;7387079;19;20136;-73
2023/09/15 01:35:24;;;;;;;0.25;0.25;;;17.80;99.90;;;;;;7392956;19;20160;-72
2023/09/15 01:37:50;;;;;;;0.22;0.22;;;17.90;99.90;;;;;;7390612;19;20556;-73
2023/09/15 01:40:15;;;;;;;0.43;0.40;;;17.90;99.90;;;;;;7388393;19;20198;-73
2023/09/15 01:42:43;;;;;;;0.20;0.20;;;17.70;99.90;;;;;;7392255;19;20491;-73
2023/09/15 01:45:09;;;;;;;0.28;0.28;;;17.30;99.90;;;;;;7389966;19;20162;-73
2023/09/15 01:47:36;;;;;;;0.30;0.30;;;17.00;99.90;;;;;;7389291;19;20238;-74
2023/09/15 01:50:03;;;;;;;0.38;0.38;;;17.10;99.90;;;;;;7388187;19;20256;-73
2023/09/15 01:52:29;;;;;;;0.35;0.30;;;17.50;99.90;;;;;;7387695;19;20142;-72
2023/09/15 01:54:56;;;;;;;0.35;0.35;;;17.80;99.90;;;;;;7390498;19;20147;-72
2023/09/15 01:57:22;;;;;;;0.47;0.47;;;17.90;99.90;;;;;;7387481;19;20155;-72
2023/09/15 01:59:48;;;;;;;0.43;0.43;;;17.90;99.90;;;;;;7387343;19;20154;-73
2023/09/15 02:02:14;;;;;;;0.30;0.20;;;17.80;99.90;;;;;;7387670;19;20138;-74
2023/09/15 02:04:40;;;;;;;0.30;0.30;;;17.90;99.90;;;;;;7386749;19;20217;-72
2023/09/15 02:07:08;;;;;;;0.20;0.20;;;17.80;99.90;;;;;;7388638;19;20146;-73
2023/09/15 02:09:33;;;;;;;0.40;0.40;;;17.80;99.90;;;;;;7387082;19;20154;-73
2023/09/15 02:11:59;;;;;;;0.20;0.20;;;17.90;99.90;;;;;;7387847;19;20485;-73
2023/09/15 02:14:26;;;;;;;0.10;0.10;;;17.90;99.90;;;;;;7387867;19;20139;-74
2023/09/15 02:16:52;;;;;;;0.38;0.38;;;17.40;99.90;;;;;;7387919;19;20613;-74
2023/09/15 02:19:18;;;;;;;0.30;0.30;;;17.20;99.90;;;;;;7390304;19;20138;-74
2023/09/15 02:21:44;;;;;;;0.35;0.35;;;17.40;99.90;;;;;;7385780;19;20184;-73
2023/09/15 02:24:10;;;;;;;0.22;0.22;;;17.20;99.90;;;;;;7388432;19;20134;-73
2023/09/15 02:26:36;;;;;;;0.30;0.30;;;17.40;99.90;;;;;;7388622;19;20157;-74
2023/09/15 02:29:03;;;;;;;0.30;0.30;;;17.20;99.90;;;;;;7388023;19;20142;-72
2023/09/15 02:31:30;;;;;;;0.52;0.50;;;17.40;99.90;;;;;;7388341;19;20152;-73
2023/09/15 02:33:59;;;;;;;0.30;0.30;;;17.00;99.90;;;;;;7385888;19;20154;-72
2023/09/15 02:36:26;;;;;;;1.15;0.38;;;16.60;99.90;;;;;;7387610;19;20138;-73
2023/09/15 02:38:54;;;;;;;0.25;0.25;;;16.40;99.90;;;;;;7389457;19;20145;-72
2023/09/15 02:41:20;;;;;;;0.20;0.20;;;16.60;99.90;;;;;;7386566;19;20141;-72
2023/09/15 02:43:47;;;;;;;0.20;0.20;;;16.80;99.90;;;;;;7385331;19;20167;-72
2023/09/15 02:46:13;;;;;;;0.20;0.20;;;16.80;99.90;;;;;;7388147;19;20134;-72
2023/09/15 02:48:41;;;;;;;0.20;0.20;;;16.60;99.90;;;;;;7389245;19;20464;-72
2023/09/15 02:51:06;;;;;;;0.20;0.20;;;16.60;99.90;;;;;;7388732;19;20131;-72
2023/09/15 02:53:32;;;;;;;0.50;0.50;;;16.60;99.90;;;;;;7386752;19;20134;-72
2023/09/15 02:56:05;;;;;;;0.10;0.10;;;16.40;99.90;;;;;;7386351;19;20138;-73
2023/09/15 02:58:31;;;;;;;0.22;0.22;;;16.10;99.90;;;;;;7387853;19;20130;-72
2023/09/15 03:00:57;;;;;;;0.20;0.20;;;16.10;99.90;;;;;;7387134;19;20450;-73
2023/09/15 03:03:23;;;;;;;0.32;0.32;;;15.90;99.90;;;;;;7388532;19;20127;-72
2023/09/15 03:05:49;;;;;;;0.57;0.35;;;15.90;99.90;;;;;;7384873;19;20616;-72
2023/09/15 03:08:14;;;;;;;0.25;0.25;;;16.30;99.90;;;;;;7389587;19;20146;-72
2023/09/15 03:10:40;;;;;;;0.20;0.20;;;16.50;99.90;;;;;;7386010;19;20154;-72
2023/09/15 03:13:06;;;;;;;0.20;0.20;;;16.30;99.90;;;;;;7386127;19;20155;-73
2023/09/15 03:15:35;;;;;;;0.30;0.30;;;16.40;99.90;;;;;;7381406;19;20210;-72
2023/09/15 03:18:01;;;;;;;0.30;0.30;;;16.10;99.90;;;;;;7388503;19;20194;-72
2023/09/15 03:20:27;;;;;;;0.28;0.28;;;15.90;99.90;;;;;;7383921;19;20152;-73
2023/09/15 03:22:53;;;;;;;0.20;0.20;;;15.90;99.90;;;;;;7385737;19;20126;-73
2023/09/15 03:25:19;;;;;;;0.20;0.20;;;15.70;99.90;;;;;;7385212;19;20616;-73
2023/09/15 03:27:44;;;;;;;0.22;0.22;;;15.80;99.90;;;;;;7388062;19;20421;-73
2023/09/15 03:30:11;;;;;;;0.15;0.15;;;15.90;99.90;;;;;;7388151;19;20126;-73
2023/09/15 03:32:37;;;;;;;0.20;0.20;;;16.00;99.90;;;;;;7387734;19;20145;-72
2023/09/15 03:35:05;;;;;;;0.13;0.13;;;15.70;99.90;;;;;;7383843;19;20143;-73
2023/09/15 03:37:32;;;;;;;0.40;0.40;;;15.80;99.90;;;;;;7388963;19;20134;-73
2023/09/15 03:39:59;;;;;;;0.13;0.13;;;16.30;99.90;;;;;;7386487;19;20134;-74
2023/09/15 03:42:25;;;;;;;0.20;0.20;;;16.80;99.90;;;;;;7383660;19;20186;-72
2023/09/15 03:44:51;;;;;;;0.20;0.20;;;17.10;99.90;;;;;;7384898;19;20150;-72
2023/09/15 03:47:16;;;;;;;0.20;0.20;;;17.20;99.90;;;;;;7385074;19;20141;-72
2023/09/15 03:49:42;;;;;;;0.20;0.20;;;17.20;99.90;;;;;;7391327;19;20611;-73
2023/09/15 03:52:08;;;;;;;0.28;0.20;;;17.30;99.90;;;;;;7391720;19;20803;-73
2023/09/15 03:54:34;;;;;;;0.20;0.20;;;17.10;99.90;;;;;;7391139;19;20135;-73
2023/09/15 03:56:59;;;;;;;0.20;0.20;;;16.80;99.90;;;;;;7392919;19;20184;-73
2023/09/15 03:59:25;;;;;;;0.20;0.20;;;16.70;99.90;;;;;;7390433;19;20217;-72
2023/09/15 04:01:51;;;;;;;0.17;0.17;;;16.70;99.90;;;;;;7391986;19;20155;-75
2023/09/15 04:04:17;;;;;;;0.20;0.20;;;16.90;99.90;;;;;;7389349;19;20154;-73
2023/09/15 04:06:43;;;;;;;0.20;0.20;;;16.80;99.90;;;;;;7390682;19;20229;-74
2023/09/15 04:09:15;;;;;;;0.28;0.28;;;16.80;99.90;;;;;;7391462;19;20885;-73
2023/09/15 04:11:41;;;;;;;0.10;0.10;;;16.60;99.90;;;;;;7391781;19;20142;-73
2023/09/15 04:14:07;;;;;;;0.32;0.32;;;16.10;99.90;;;;;;7391170;19;20150;-73
2023/09/15 04:16:34;;;;;;;0.40;0.20;;;16.10;99.90;;;;;;7394911;19;20143;-74
2023/09/15 04:19:00;;;;;;;0.30;0.30;;;15.90;99.90;;;;;;7392417;19;20134;-73
2023/09/15 04:21:25;;;;;;;0.15;0.15;;;15.80;99.90;;;;;;7391437;19;20150;-74
2023/09/15 04:23:51;;;;;;;0.20;0.20;;;15.90;99.90;;;;;;7391604;19;20134;-73
2023/09/15 04:26:17;;;;;;;0.13;0.13;;;16.20;99.90;;;;;;7391232;19;20588;-72
2023/09/15 04:28:42;;;;;;;0.20;0.20;;;16.40;99.90;;;;;;7391247;19;20162;-75
2023/09/15 04:31:08;;;;;;;0.20;0.20;;;16.60;99.90;;;;;;7391541;19;20135;-73
2023/09/15 04:33:34;;;;;;;0.20;0.20;;;16.80;99.90;;;;;;7390457;19;20568;-73
2023/09/15 04:36:00;;;;;;;0.22;0.20;;;16.60;99.90;;;;;;7391095;19;20172;-73
2023/09/15 04:38:25;;;;;;;0.17;0.17;;;16.70;99.90;;;;;;7389381;19;20177;-73
2023/09/15 04:40:52;;;;;;;0.20;0.20;;;16.90;99.90;;;;;;7392340;19;20138;-74
2023/09/15 04:43:18;;;;;;;0.17;0.17;;;16.60;99.90;;;;;;7390999;19;20665;-73
2023/09/15 04:45:44;;;;;;;0.10;0.10;;;16.30;99.90;;;;;;7390465;19;20139;-73
2023/09/15 04:48:10;;;;;;;0.47;0.35;;;16.40;99.90;;;;;;7391276;19;20515;-73
2023/09/15 04:50:38;;;;;;;0.30;0.17;;;16.60;99.90;;;;;;7390208;19;20508;-74
2023/09/15 04:53:06;;;;;;;0.20;0.20;;;16.80;99.90;;;;;;7388815;19;20151;-74
2023/09/15 04:55:33;;;;;;;0.20;0.20;;;16.70;99.90;;;;;;7391763;19;20486;-73
2023/09/15 04:57:58;;;;;;;0.20;0.20;;;16.70;99.90;;;;;;7389151;19;20469;-73
2023/09/15 05:00:26;;;;;;;0.20;0.20;;;16.90;99.90;;;;;;7391591;19;20135;-73
2023/09/15 05:02:52;;;;;;;0.20;0.20;;;16.80;99.90;;;;;;7393204;19;20149;-74
2023/09/15 05:05:17;;;;;;;0.13;0.13;;;17.00;99.90;;;;;;7385829;19;20218;-74
2023/09/15 05:07:44;;;;;;;0.28;0.28;;;17.10;99.90;;;;;;7391433;19;20622;-74
2023/09/15 05:10:10;;;;;;;0.20;0.20;;;17.10;99.90;;;;;;7386561;19;20147;-74
2023/09/15 05:12:35;;;;;;;0.10;0.10;;;17.20;99.90;;;;;;7390939;19;20161;-74
2023/09/15 05:15:03;;;;;;;0.20;0.20;;;17.00;99.90;;;;;;7389437;19;20157;-74
2023/09/15 05:17:28;;;;;;;0.20;0.20;;;16.80;99.90;;;;;;7388190;19;20465;-73
2023/09/15 05:19:56;;;;;;;0.30;0.30;;;16.80;99.90;;;;;;7388340;19;20202;-73
2023/09/15 05:22:22;;;;;;;0.25;0.25;;;16.90;99.90;;;;;;7388087;19;20477;-73
2023/09/15 05:24:48;;;;;;;0.10;0.10;;;16.90;99.90;;;;;;7389704;19;20608;-72
2023/09/15 05:27:14;;;;;;;0.30;0.30;;;17.10;99.90;;;;;;7388499;19;20138;-74
2023/09/15 05:29:40;;;;;;;0.20;0.20;;;17.10;99.90;;;;;;7390249;19;20134;-73
2023/09/15 05:32:05;;;;;;;0.30;0.30;;;17.00;99.90;;;;;;7386444;19;20142;-73
2023/09/15 05:34:31;;;;;;;0.30;0.30;;;17.10;99.90;;;;;;7389620;19;20218;-73
2023/09/15 05:36:57;;;;;;;0.10;0.10;;;16.70;99.90;;;;;;7386599;19;20139;-73
2023/09/15 05:39:24;;;;;;;0.20;0.20;;;16.90;99.90;;;;;;7389560;19;20471;-73
2023/09/15 05:41:49;;;;;;;0.20;0.20;;;17.00;99.90;;;;;;7385540;19;20139;-73
2023/09/15 05:44:18;;;;;;;0.30;0.30;;;16.70;99.90;;;;;;7385464;19;20141;-73
2023/09/15 05:46:44;;;;;;;0.10;0.10;;;16.50;99.90;;;;;;7389308;19;20139;-73
2023/09/15 05:49:09;;;;;;;0.52;0.20;;;16.90;99.90;;;;;;7386745;19;20574;-73
2023/09/15 05:51:35;;;;;;;0.22;0.22;;;17.00;99.90;;;;;;7387069;19;20191;-74
2023/09/15 05:54:02;;;;;;;0.20;0.20;;;16.50;99.90;;;;;;7387070;19;20596;-72
2023/09/15 05:56:30;;;;;;;0.40;0.40;;;16.10;99.90;;;;;;7390532;19;20190;-72
2023/09/15 05:58:56;;;;;;;0.45;0.45;;;15.80;99.90;;;;;;7388420;19;20234;-72
2023/09/15 06:01:21;;;;;;;0.13;0.13;;;16.00;99.90;;;;;;7388539;19;20290;-72
2023/09/15 06:03:48;;;;;;;0.28;0.28;;;16.50;99.90;;;;;;7386664;19;20127;-72
2023/09/15 06:06:19;;;;;;;0.20;0.20;;;16.90;99.90;;;;;;7383775;19;20168;-72
2023/09/15 06:08:44;;;;;;;0.30;0.30;;;16.50;99.90;;;;;;7388147;19;20153;-72
2023/09/15 06:11:10;;;;;;;0.32;0.30;;;16.30;99.90;;;;;;7386419;19;20241;-71
2023/09/15 06:13:37;;;;;;;0.20;0.20;;;16.10;99.90;;;;;;7385704;19;20165;-74
2023/09/15 06:16:05;;;;;;;0.47;0.45;;;16.10;99.90;;;;;;7386782;19;20608;-71
2023/09/15 06:18:31;;;;;;;0.30;0.30;;;16.50;99.90;;;;;;7387001;19;20172;-72
2023/09/15 06:20:57;;;;;;;0.40;0.40;;;16.60;99.90;;;;;;7387931;19;20278;-73
2023/09/15 06:23:24;;;;;;;0.32;0.32;;;17.00;99.90;;;;;;7384223;19;20160;-73
2023/09/15 06:25:51;;;;;;;0.40;0.40;;;17.20;99.90;;;;;;7389752;19;20178;-73
2023/09/15 06:28:18;;;;;;;1.13;0.63;;;17.30;99.90;;;;;;7385314;19;20162;-71
2023/09/15 06:30:44;;;;;;;0.20;0.20;;;17.40;99.90;;;;;;7389648;19;20591;-72
2023/09/15 06:33:10;;;;;;;0.25;0.25;;;17.40;99.90;;;;;;7382567;19;20158;-72
2023/09/15 06:35:39;;;;;;;0.30;0.30;;;17.50;99.90;;;;;;7385173;19;20885;-73
2023/09/15 06:38:06;;;;;;;0.38;0.30;;;17.60;99.90;;;;;;7385682;19;20146;-72
2023/09/15 06:40:35;;;;;;;0.13;0.13;;;17.30;99.90;;;;;;7383875;19;20178;-72
2023/09/15 06:43:04;;;;;;;0.20;0.20;;;17.30;99.90;;;;;;7389960;19;20596;-72
2023/09/15 06:45:31;;;;;;;0.20;0.20;;;17.60;99.90;;;;;;7387109;19;20145;-73
2023/09/15 06:47:59;;;;;;;0.20;0.20;;;17.70;99.90;;;;;;7387680;19;20599;-72
2023/09/15 06:50:24;;;;;;;0.30;0.30;;;17.80;99.90;;;;;;7387097;19;20138;-72
2023/09/15 06:52:50;;;;;;;0.10;0.10;;;17.40;99.90;;;;;;7389303;19;20135;-72
2023/09/15 06:55:16;;;;;;;1.70;0.80;;;17.00;99.90;;;;;;7387729;19;20166;-74
2023/09/15 06:57:42;;;;;;;0.13;0.13;;;16.70;99.90;;;;;;7387300;19;20221;-73
2023/09/15 07:00:09;;;;;;;0.30;0.30;;;17.10;99.90;;;;;;7387459;19;20134;-73
2023/09/15 07:02:35;;;;;;;0.57;0.55;;;17.40;99.90;;;;;;7384376;19;20515;-74
2023/09/15 07:05:00;;;;;;;0.35;0.35;;;17.60;99.90;;;;;;7387273;19;20616;-73
2023/09/15 07:07:26;;;;;;;0.25;0.25;;;17.70;99.90;;;;;;7385575;19;20175;-74
2023/09/15 07:09:52;;;;;;;0.30;0.30;;;17.60;99.90;;;;;;7389180;19;20274;-75
2023/09/15 07:12:18;;;;;;;0.40;0.40;;;17.30;99.90;;;;;;7379215;19;22201;-73
2023/09/15 07:14:43;;;;;;;0.30;0.30;;;17.00;99.90;;;;;;7378498;19;20202;-71
2023/09/15 07:17:09;;;;;;;0.20;0.20;;;17.00;99.90;;;;;;7387456;19;20146;-72
2023/09/15 07:19:35;;;;;;;0.20;0.20;;;17.20;99.90;;;;;;7387453;19;20138;-71
2023/09/15 07:22:00;;;;;;;0.30;0.30;;;17.60;99.90;;;;;;7380997;19;20178;-72
2023/09/15 07:24:26;;;;;;;0.20;0.20;;;17.80;99.90;;;;;;7386678;19;20149;-71
2023/09/15 07:26:52;;;;;;;0.30;0.30;;;17.90;99.90;;;;;;7387104;19;20143;-71
2023/09/15 07:29:17;;;;;;;0.47;0.47;;;17.70;99.90;;;;;;7386265;19;20500;-71
2023/09/15 07:31:43;;;;;;;0.30;0.30;;;17.80;99.90;;;;;;7387630;19;20143;-71
2023/09/15 07:34:10;;;;;;;0.20;0.20;;;18.00;99.90;;;;;;7383838;19;20139;-71
2023/09/15 07:36:35;;;;;;;0.28;0.28;;;18.10;99.90;;;;;;7382557;19;20230;-72
2023/09/15 07:39:02;;;;;;;0.57;0.45;;;18.20;99.90;;;;;;7385475;19;20162;-71
2023/09/15 07:41:28;;;;;;;0.28;0.28;;;18.30;99.90;;;;;;7386090;19;20162;-71
2023/09/15 07:43:56;;;;;;;0.52;0.30;;;18.40;99.90;;;;;;7385864;19;20198;-72
2023/09/15 07:46:22;;;;;;;0.40;0.40;;;18.40;99.90;;;;;;7386129;19;20582;-71
2023/09/15 07:48:48;;;;;;;0.43;0.43;;;18.30;99.90;;;;;;7384586;19;20149;-72
2023/09/15 07:51:15;;;;;;;0.50;0.50;;;18.30;99.90;;;;;;7385374;19;20158;-72
2023/09/15 07:53:42;;;;;;;0.22;0.22;;;18.30;99.90;;;;;;7385262;19;20267;-73
2023/09/15 07:56:07;;;;;;;0.77;0.57;;;18.40;99.90;;;;;;7384687;19;20142;-72
2023/09/15 07:58:33;;;;;;;0.40;0.40;;;18.40;99.90;;;;;;7386376;19;20506;-71
2023/09/15 08:01:00;;;;;;;0.40;0.40;;;18.50;99.90;;;;;;7384266;19;20143;-72
2023/09/15 08:03:26;;;;;;;0.40;0.40;;;18.50;99.90;;;;;;7386685;19;20600;-74
2023/09/15 08:05:52;;;;;;;0.40;0.40;;;18.60;99.90;;;;;;7383610;19;20181;-73
2023/09/15 08:08:18;;;;;;;0.40;0.40;;;18.70;99.90;;;;;;7387104;19;20146;-71
2023/09/15 08:10:45;;;;;;;0.47;0.40;;;18.80;99.90;;;;;;7384315;19;20214;-72
2023/09/15 08:13:10;;;;;;;2.22;0.98;;;19.00;99.90;;;;;;7384322;19;20200;-72
2023/09/15 08:15:36;;;;;;;0.40;0.40;;;19.30;99.90;;;;;;7383324;19;20317;-72
2023/09/15 08:18:03;;;;;;;0.52;0.52;;;19.60;99.90;;;;;;7385294;19;20134;-71
2023/09/15 08:20:29;;;;;;;0.60;0.50;;;19.80;99.90;;;;;;7383815;19;20158;-71
2023/09/15 08:22:55;;;;;;;0.77;0.50;;;19.80;99.90;;;;;;7386990;19;20150;-71
2023/09/15 08:25:20;;;;;;;0.30;0.30;;;19.80;99.90;;;;;;7385355;19;20131;-71
2023/09/15 08:27:46;;;;;;;0.28;0.28;;;19.80;99.90;;;;;;7383203;19;20131;-71
2023/09/15 08:30:13;;;;;;;0.25;0.25;;;19.90;99.90;;;;;;7383581;19;20131;-72
2023/09/15 08:32:39;;;;;;;0.45;0.45;;;20.10;99.90;;;;;;7384611;19;20454;-72
2023/09/15 08:35:05;;;;;;;0.28;0.28;;;20.10;99.90;;;;;;7389044;19;20150;-72
2023/09/15 08:37:31;;;;;;;0.20;0.20;;;20.10;99.90;;;;;;7391396;19;20131;-72
2023/09/15 08:39:57;;;;;;;0.30;0.30;;;20.10;99.90;;;;;;7389928;19;20127;-73
2023/09/15 08:42:27;;;;;;;0.22;0.22;;;20.10;99.90;;;;;;7389388;19;20194;-72
2023/09/15 08:44:54;;;;;;;0.20;0.20;;;20.20;99.90;;;;;;7392019;19;20133;-71
2023/09/15 08:47:20;;;;;;;0.50;0.50;;;20.40;99.90;;;;;;7390983;19;20159;-72
2023/09/15 08:49:48;;;;;;;0.35;0.35;;;20.30;99.90;;;;;;7390281;19;20173;-72
2023/09/15 08:52:15;;;;;;;0.30;0.30;;;20.40;99.90;;;;;;7391762;19;20270;-70
2023/09/15 08:54:41;;;;;;;0.40;0.35;;;20.50;99.90;;;;;;7393612;19;20133;-71
2023/09/15 08:57:07;;;;;;;0.25;0.25;;;20.50;99.90;;;;;;7389691;19;20206;-71
2023/09/15 08:59:34;;;;;;;0.28;0.28;;;20.40;99.90;;;;;;7389949;19;20139;-71
2023/09/15 09:02:00;;;;;;;0.30;0.30;;;20.40;99.90;;;;;;7389540;19;20145;-71
2023/09/15 09:04:26;;;;;;;0.30;0.30;;;20.40;99.90;;;;;;7388615;19;20189;-71
2023/09/15 09:06:52;;;;;;;0.30;0.30;;;20.40;99.90;;;;;;7390452;19;20130;-72
2023/09/15 09:09:18;;;;;;;0.20;0.20;;;20.40;99.90;;;;;;7390104;19;20883;-73
2023/09/15 09:11:46;;;;;;;0.10;0.10;;;20.40;99.90;;;;;;7390336;19;20135;-72
2023/09/15 09:14:12;;;;;;;0.20;0.20;;;20.50;99.90;;;;;;7388637;19;20210;-72
2023/09/15 09:16:42;;;;;;;0.47;0.47;;;20.50;99.90;;;;;;7387988;19;20139;-72
2023/09/15 09:19:10;;;;;;;0.30;0.30;;;20.70;99.90;;;;;;7388190;19;20143;-72
2023/09/15 09:21:36;;;;;;;0.30;0.30;;;20.90;99.90;;;;;;7389517;19;20150;-72
2023/09/15 09:24:02;;;;;;;0.20;0.20;;;20.90;99.90;;;;;;7391800;19;20144;-72
2023/09/15 09:26:28;;;;;;;0.20;0.20;;;21.00;99.90;;;;;;7391537;19;20635;-71
2023/09/15 09:28:57;;;;;;;0.40;0.40;;;21.10;99.90;;;;;;7389377;19;20130;-72
2023/09/15 09:31:27;;;;;;;0.47;0.47;;;21.10;99.90;;;;;;7387854;19;20142;-73
2023/09/15 09:33:54;;;;;;;0.20;0.20;;;21.10;99.90;;;;;;7387649;19;20218;-74
2023/09/15 09:36:20;;;;;;;0.20;0.20;;;21.30;99.90;;;;;;7390136;19;20259;-74
2023/09/15 09:38:51;;;;;;;1.17;0.28;;;21.50;99.90;;;;;;7391225;19;20586;-74
2023/09/15 09:41:19;;;;;;;0.47;0.30;;;21.60;99.90;;;;;;7390633;19;20145;-73
2023/09/15 09:43:51;;;;;;;0.10;0.10;;;21.60;99.90;;;;;;7388341;19;20482;-74
2023/09/15 09:46:21;;;;;;;0.28;0.28;;;21.70;99.90;;;;;;7388275;19;20581;-74
2023/09/15 09:48:49;;;;;;;0.77;0.70;;;21.90;99.90;;;;;;7389650;19;20138;-73
2023/09/15 09:51:17;;;;;;;0.25;0.25;;;21.90;99.90;;;;;;7388450;19;20150;-74
2023/09/15 09:53:42;;;;;;;0.40;0.40;;;21.90;99.90;;;;;;7388994;19;20161;-74
2023/09/15 09:56:08;;;;;;;0.45;0.45;;;21.90;99.90;;;;;;7388243;19;20142;-75
2023/09/15 09:58:36;;;;;;;0.35;0.32;;;21.80;99.90;;;;;;7387709;19;20722;-74
2023/09/15 10:01:11;;;;;;;0.22;0.22;;;21.80;99.90;;;;;;7389477;19;20635;-74
2023/09/15 10:03:37;;;;;;;0.38;0.30;;;21.90;99.90;;;;;;7388412;19;20488;-73
2023/09/15 10:06:05;;;;;;;0.25;0.20;;;22.10;99.90;;;;;;7386169;19;20476;-73
2023/09/15 10:08:32;;;;;;;0.17;0.17;;;22.10;99.90;;;;;;7389456;19;20127;-73
2023/09/15 10:10:58;;;;;;;0.30;0.30;;;22.10;99.90;;;;;;7386700;19;20223;-73
2023/09/15 10:13:26;;;;;;;0.30;0.30;;;22.10;99.90;;;;;;7387176;19;20146;-72
2023/09/15 10:15:53;;;;;;;0.35;0.32;;;22.10;99.90;;;;;;7387849;19;20887;-73
2023/09/15 10:18:20;;;;;;;0.40;0.40;;;22.40;99.90;;;;;;7389119;19;20454;-71
2023/09/15 10:20:50;;;;;;;0.30;0.30;;;22.60;99.90;;;;;;7385542;19;20138;-74
2023/09/15 10:23:15;;;;;;;0.60;0.50;;;22.70;99.90;;;;;;7389781;19;20171;-72
2023/09/15 10:25:44;;;;;;;0.50;0.50;;;22.60;99.90;;;;;;7388763;19;20146;-72
2023/09/15 10:28:14;;;;;;;0.32;0.32;;;22.60;99.90;;;;;;7387804;19;20151;-71
2023/09/15 10:30:40;;;;;;;0.25;0.25;;;22.60;99.90;;;;;;7388682;19;20761;-71
2023/09/15 10:33:07;;;;;;;0.20;0.20;;;22.70;99.90;;;;;;7388687;19;20545;-71
2023/09/15 10:35:33;;;;;;;0.60;0.60;;;22.80;99.90;;;;;;7388206;19;20221;-72
2023/09/15 10:38:02;;;;;;;0.55;0.35;;;22.80;99.90;;;;;;7387217;19;20157;-71
2023/09/15 10:40:42;;;;;;;0.70;0.40;;;22.80;99.90;;;;;;7387299;19;20516;-70
2023/09/15 10:43:08;;;;;;;0.30;0.30;;;23.00;99.90;;;;;;7386349;19;20548;-70
2023/09/15 10:45:34;;;;;;;0.20;0.20;;;23.00;99.90;;;;;;7387391;19;20151;-71
2023/09/15 10:48:00;;;;;;;0.35;0.35;;;23.00;99.90;;;;;;7387421;19;20221;-71
2023/09/15 10:50:34;;;;;;;0.28;0.17;;;23.20;99.90;;;;;;7385754;19;20197;-70
2023/09/15 10:53:08;;;;;;;0.30;0.30;;;23.20;99.90;;;;;;7387137;19;20258;-70
2023/09/15 10:55:35;;;;;;;0.38;0.38;;;23.30;99.90;;;;;;7389476;19;20130;-71
2023/09/15 10:58:03;;;;;;;0.50;0.38;;;23.40;99.90;;;;;;7384390;19;20151;-70
2023/09/15 11:00:30;;;;;;;0.20;0.20;;;23.30;99.90;;;;;;7386366;19;20134;-71
2023/09/15 11:02:56;;;;;;;0.70;0.50;;;23.40;99.90;;;;;;7386319;19;20138;-71
2023/09/15 11:05:22;;;;;;;0.20;0.20;;;23.50;99.90;;;;;;7385262;19;20657;-71
2023/09/15 11:07:49;;;;;;;0.43;0.40;;;23.50;99.90;;;;;;7384924;19;20166;-70
2023/09/15 11:10:15;;;;;;;0.20;0.20;;;23.60;99.90;;;;;;7385218;19;20140;-70
2023/09/15 11:12:40;;;;;;;0.35;0.35;;;23.70;99.90;;;;;;7386104;19;20571;-71
2023/09/15 11:15:07;;;;;;;0.38;0.32;;;23.80;99.90;;;;;;7386367;19;20583;-71
2023/09/15 11:17:34;;;;;;;0.30;0.30;;;23.90;99.90;;;;;;7383694;19;20147;-71
2023/09/15 11:20:05;;;;;;;0.32;0.30;;;24.00;99.90;;;;;;7387694;19;20147;-70
2023/09/15 11:22:33;;;;;;;1.02;0.20;;;24.00;99.90;;;;;;7381636;19;20155;-70
2023/09/15 11:25:00;;;;;;;0.20;0.20;;;24.00;99.90;;;;;;7385387;19;20236;-72
2023/09/15 11:27:26;;;;;;;0.50;0.40;;;24.00;99.90;;;;;;7384705;19;20138;-73
2023/09/15 11:29:51;;;;;;;0.57;0.38;;;24.00;99.90;;;;;;7386232;19;20259;-72
2023/09/15 11:32:17;;;;;;;0.30;0.30;;;24.10;99.90;;;;;;7386286;19;20642;-72
2023/09/15 11:34:44;;;;;;;0.43;0.43;;;24.10;99.90;;;;;;7384224;19;20147;-73
2023/09/15 11:37:10;;;;;;;0.30;0.30;;;24.20;99.90;;;;;;7385183;19;20782;-73
2023/09/15 11:39:36;;;;;;;0.30;0.30;;;24.30;99.90;;;;;;7384425;19;20161;-72
2023/09/15 11:42:10;;;;;;;0.73;0.20;;;24.40;99.90;;;;;;7382227;19;20499;-73
2023/09/15 11:44:36;;;;;;;0.30;0.30;;;24.40;99.90;;;;;;7383761;19;20150;-73
2023/09/15 11:47:04;;;;;;;0.40;0.40;;;24.50;99.90;;;;;;7384672;19;20146;-73
2023/09/15 11:49:30;;;;;;;0.32;0.32;;;24.40;99.90;;;;;;7384539;19;20139;-73
2023/09/15 11:52:00;;;;;;;0.40;0.40;;;24.40;99.90;;;;;;7382353;19;20192;-73
2023/09/15 11:54:26;;;;;;;0.40;0.40;;;24.50;99.90;;;;;;7384841;19;20149;-73
2023/09/15 11:56:56;;;;;;;0.10;0.10;;;24.60;99.90;;;;;;7385351;19;20525;-72
2023/09/15 11:59:23;;;;;;;0.30;0.30;;;24.60;99.90;;;;;;7383839;19;20150;-73
2023/09/15 12:01:54;;;;;;;0.45;0.45;;;24.70;99.90;;;;;;7383824;19;20510;-74
2023/09/15 12:04:20;;;;;;;0.63;0.60;;;24.80;99.90;;;;;;7384603;19;20156;-73
2023/09/15 12:06:46;;;;;;;0.28;0.28;;;25.00;99.90;;;;;;7386714;19;20262;-73
2023/09/15 12:09:14;;;;;;;0.38;0.38;;;24.90;99.90;;;;;;7386504;19;20154;-72
2023/09/15 12:11:44;;;;;;;0.55;0.55;;;25.00;99.90;;;;;;7393235;19;20602;-73
2023/09/15 12:14:12;;;;;;;0.55;0.55;;;25.10;99.90;;;;;;7391384;19;20166;-73
2023/09/15 12:16:38;;;;;;;0.40;0.40;;;25.10;99.90;;;;;;7390930;19;20143;-73
2023/09/15 12:19:05;;;;;;;0.60;0.55;;;25.10;99.90;;;;;;7391382;19;20143;-73
2023/09/15 12:21:30;;;;;;;0.40;0.40;;;25.20;99.90;;;;;;7390146;19;20126;-72
2023/09/15 12:24:09;;;;;;;0.40;0.40;;;25.10;99.90;;;;;;7390797;19;20168;-72
2023/09/15 12:26:37;;;;;;;0.55;0.47;;;25.20;99.90;;;;;;7389357;19;20933;-73
2023/09/15 12:29:03;;;;;;;0.30;0.30;;;25.20;99.90;;;;;;7390456;19;20137;-73
2023/09/15 12:31:29;;;;;;;0.50;0.38;;;25.20;99.90;;;;;;7391464;19;20130;-73
2023/09/15 12:33:55;;;;;;;0.20;0.20;;;25.20;99.90;;;;;;7390230;19;20143;-73
2023/09/15 12:36:22;;;;;;;0.52;0.52;;;25.20;99.90;;;;;;7389971;19;20138;-73
2023/09/15 12:38:50;;;;;;;0.30;0.30;;;25.30;99.90;;;;;;7391114;19;20534;-73
2023/09/15 12:41:16;;;;;;;0.40;0.40;;;25.40;99.90;;;;;;7389676;19;20164;-73
2023/09/15 12:43:43;;;;;;;0.38;0.38;;;25.50;99.90;;;;;;7387899;19;20130;-73
2023/09/15 12:46:09;;;;;;;0.20;0.20;;;25.40;99.90;;;;;;7392148;19;20590;-73